sensor_id;sensor_type;location;lat;lon;timestamp;temperature;humidity
7972;DHT22;4031;49.758;6.120;2022-08-19T00:00:46;15.40;99.90
7972;DHT22;4031;49.758;6.120;2022-08-19T00:03:13;15.40;99.90
7972;DHT22;4031;49.758;6.120;2022-08-19T00:05:38;15.30;99.90
7972;DHT22;4031;49.758;6.120;2022-08-19T00:08:05;15.20;99.90
7972;DHT22;4031;49.758;6.120;2022-08-19T00:10:31;15.20;99.90
7972;DHT22;4031;49.758;6.120;2022-08-19T00:12:57;15.20;99.90
7972;DHT22;4031;49.758;6.120;2022-08-19T00:15:23;15.20;99.90
7972;DHT22;4031;49.758;6.120;2022-08-19T00:17:49;15.20;99.90
7972;DHT22;4031;49.758;6.120;2022-08-19T00:20:17;15.20;99.90
7972;DHT22;4031;49.758;6.120;2022-08-19T00:22:46;15.20;99.90
7972;DHT22;4031;49.758;6.120;2022-08-19T00:25:13;15.10;99.90
7972;DHT22;4031;49.758;6.120;2022-08-19T00:27:39;15.10;99.90
7972;DHT22;4031;49.758;6.120;2022-08-19T00:30:06;15.10;99.90
7972;DHT22;4031;49.758;6.120;2022-08-19T00:32:33;15.10;99.90
7972;DHT22;4031;49.758;6.120;2022-08-19T00:35:00;15.00;99.90
7972;DHT22;4031;49.758;6.120;2022-08-19T00:37:27;15.00;99.90
7972;DHT22;4031;49.758;6.120;2022-08-19T00:39:53;14.90;99.90
7972;DHT22;4031;49.758;6.120;2022-08-19T00:42:20;14.90;99.90
7972;DHT22;4031;49.758;6.120;2022-08-19T00:44:46;14.90;99.90
7972;DHT22;4031;49.758;6.120;2022-08-19T00:47:12;14.90;99.90
7972;DHT22;4031;49.758;6.120;2022-08-19T00:49:47;14.90;99.90
7972;DHT22;4031;49.758;6.120;2022-08-19T00:52:47;14.90;99.90
7972;DHT22;4031;49.758;6.120;2022-08-19T00:55:18;14.80;99.90
7972;DHT22;4031;49.758;6.120;2022-08-19T00:57:54;14.80;99.90
7972;DHT22;4031;49.758;6.120;2022-08-19T01:00:24;14.80;99.90
7972;DHT22;4031;49.758;6.120;2022-08-19T01:02:52;14.70;99.90
7972;DHT22;4031;49.758;6.120;2022-08-19T01:05:22;14.70;99.90
7972;DHT22;4031;49.758;6.120;2022-08-19T01:07:50;14.70;99.90
7972;DHT22;4031;49.758;6.120;2022-08-19T01:10:20;14.60;99.90
7972;DHT22;4031;49.758;6.120;2022-08-19T01:12:50;14.60;99.90
7972;DHT22;4031;49.758;6.120;2022-08-19T01:15:23;14.60;99.90
7972;DHT22;4031;49.758;6.120;2022-08-19T01:17:53;14.60;99.90
7972;DHT22;4031;49.758;6.120;2022-08-19T01:20:22;14.50;99.90
7972;DHT22;4031;49.758;6.120;2022-08-19T01:22:49;14.50;99.90
7972;DHT22;4031;49.758;6.120;2022-08-19T01:25:19;14.50;99.90
7972;DHT22;4031;49.758;6.120;2022-08-19T01:27:49;14.50;99.90
7972;DHT22;4031;49.758;6.120;2022-08-19T01:30:22;14.50;99.90
7972;DHT22;4031;49.758;6.120;2022-08-19T01:32:51;14.50;99.90
7972;DHT22;4031;49.758;6.120;2022-08-19T01:35:19;14.40;99.90
7972;DHT22;4031;49.758;6.120;2022-08-19T01:37:59;14.40;99.90
7972;DHT22;4031;49.758;6.120;2022-08-19T01:40:30;14.40;99.90
7972;DHT22;4031;49.758;6.120;2022-08-19T01:42:57;14.40;99.90
7972;DHT22;4031;49.758;6.120;2022-08-19T01:45:25;14.30;99.90
7972;DHT22;4031;49.758;6.120;2022-08-19T01:47:52;14.30;99.90
7972;DHT22;4031;49.758;6.120;2022-08-19T01:50:19;14.30;99.90
7972;DHT22;4031;49.758;6.120;2022-08-19T01:52:46;14.30;99.90
7972;DHT22;4031;49.758;6.120;2022-08-19T01:55:15;14.30;99.90
7972;DHT22;4031;49.758;6.120;2022-08-19T01:57:49;14.30;99.90
7972;DHT22;4031;49.758;6.120;2022-08-19T02:00:18;14.30;99.90
7972;DHT22;4031;49.758;6.120;2022-08-19T02:02:45;14.30;99.90
7972;DHT22;4031;49.758;6.120;2022-08-19T02:05:12;14.30;99.90
7972;DHT22;4031;49.758;6.120;2022-08-19T02:07:39;14.30;99.90
7972;DHT22;4031;49.758;6.120;2022-08-19T02:10:12;14.30;99.90
7972;DHT22;4031;49.758;6.120;2022-08-19T02:12:40;14.30;99.90
7972;DHT22;4031;49.758;6.120;2022-08-19T02:15:06;14.40;99.90
7972;DHT22;4031;49.758;6.120;2022-08-19T02:17:33;14.30;99.90
7972;DHT22;4031;49.758;6.120;2022-08-19T02:19:59;14.30;99.90
7972;DHT22;4031;49.758;6.120;2022-08-19T02:22:26;14.40;99.90
7972;DHT22;4031;49.758;6.120;2022-08-19T02:24:53;14.40;99.90
7972;DHT22;4031;49.758;6.120;2022-08-19T02:27:19;14.40;99.90
7972;DHT22;4031;49.758;6.120;2022-08-19T02:29:47;14.30;99.90
7972;DHT22;4031;49.758;6.120;2022-08-19T02:32:14;14.30;99.90
7972;DHT22;4031;49.758;6.120;2022-08-19T02:34:40;14.30;99.90
7972;DHT22;4031;49.758;6.120;2022-08-19T02:37:07;14.30;99.90
7972;DHT22;4031;49.758;6.120;2022-08-19T02:39:53;14.20;99.90
7972;DHT22;4031;49.758;6.120;2022-08-19T02:42:18;14.20;99.90
7972;DHT22;4031;49.758;6.120;2022-08-19T02:44:44;14.20;99.90
7972;DHT22;4031;49.758;6.120;2022-08-19T02:47:10;14.20;99.90
7972;DHT22;4031;49.758;6.120;2022-08-19T02:49:36;14.20;99.90
7972;DHT22;4031;49.758;6.120;2022-08-19T02:52:02;14.10;99.90
7972;DHT22;4031;49.758;6.120;2022-08-19T02:54:28;14.20;99.90
7972;DHT22;4031;49.758;6.120;2022-08-19T02:56:54;14.10;99.90
7972;DHT22;4031;49.758;6.120;2022-08-19T02:59:20;14.10;99.90
7972;DHT22;4031;49.758;6.120;2022-08-19T03:01:46;14.10;99.90
7972;DHT22;4031;49.758;6.120;2022-08-19T03:04:14;14.10;99.90
7972;DHT22;4031;49.758;6.120;2022-08-19T03:06:43;14.20;99.90
7972;DHT22;4031;49.758;6.120;2022-08-19T03:09:10;14.10;99.90
7972;DHT22;4031;49.758;6.120;2022-08-19T03:11:37;14.10;99.90
7972;DHT22;4031;49.758;6.120;2022-08-19T03:14:04;14.20;99.90
7972;DHT22;4031;49.758;6.120;2022-08-19T03:16:33;14.10;99.90
7972;DHT22;4031;49.758;6.120;2022-08-19T03:19:01;14.10;99.90
7972;DHT22;4031;49.758;6.120;2022-08-19T03:21:29;14.10;99.90
7972;DHT22;4031;49.758;6.120;2022-08-19T03:24:00;14.10;99.90
7972;DHT22;4031;49.758;6.120;2022-08-19T03:26:28;14.10;99.90
7972;DHT22;4031;49.758;6.120;2022-08-19T03:28:55;14.10;99.90
7972;DHT22;4031;49.758;6.120;2022-08-19T03:31:23;14.10;99.90
7972;DHT22;4031;49.758;6.120;2022-08-19T03:33:50;14.10;99.90
7972;DHT22;4031;49.758;6.120;2022-08-19T03:36:20;14.10;99.90
7972;DHT22;4031;49.758;6.120;2022-08-19T03:38:52;14.00;99.90
7972;DHT22;4031;49.758;6.120;2022-08-19T03:41:26;14.00;99.90
7972;DHT22;4031;49.758;6.120;2022-08-19T03:43:54;14.00;99.90
7972;DHT22;4031;49.758;6.120;2022-08-19T03:46:25;14.00;99.90
7972;DHT22;4031;49.758;6.120;2022-08-19T03:48:55;13.90;99.90
7972;DHT22;4031;49.758;6.120;2022-08-19T03:51:27;13.90;99.90
7972;DHT22;4031;49.758;6.120;2022-08-19T03:53:56;13.90;99.90
7972;DHT22;4031;49.758;6.120;2022-08-19T03:56:23;13.80;99.90
7972;DHT22;4031;49.758;6.120;2022-08-19T03:58:54;13.80;99.90
7972;DHT22;4031;49.758;6.120;2022-08-19T04:01:24;13.80;99.90
7972;DHT22;4031;49.758;6.120;2022-08-19T04:03:52;13.80;99.90
7972;DHT22;4031;49.758;6.120;2022-08-19T04:06:21;13.80;99.90
7972;DHT22;4031;49.758;6.120;2022-08-19T04:08:50;13.80;99.90
7972;DHT22;4031;49.758;6.120;2022-08-19T04:11:23;13.80;99.90
7972;DHT22;4031;49.758;6.120;2022-08-19T04:13:52;13.80;99.90
7972;DHT22;4031;49.758;6.120;2022-08-19T04:16:19;13.80;99.90
7972;DHT22;4031;49.758;6.120;2022-08-19T04:18:47;13.70;99.90
7972;DHT22;4031;49.758;6.120;2022-08-19T04:21:24;13.70;99.90
7972;DHT22;4031;49.758;6.120;2022-08-19T04:23:51;13.70;99.90
7972;DHT22;4031;49.758;6.120;2022-08-19T04:26:27;13.70;99.90
7972;DHT22;4031;49.758;6.120;2022-08-19T04:29:00;13.70;99.90
7972;DHT22;4031;49.758;6.120;2022-08-19T04:31:29;13.60;99.90
7972;DHT22;4031;49.758;6.120;2022-08-19T04:34:00;13.60;99.90
7972;DHT22;4031;49.758;6.120;2022-08-19T04:36:30;13.60;99.90
7972;DHT22;4031;49.758;6.120;2022-08-19T04:38:59;13.60;99.90
7972;DHT22;4031;49.758;6.120;2022-08-19T04:41:26;13.60;99.90
7972;DHT22;4031;49.758;6.120;2022-08-19T04:44:12;13.50;99.90
7972;DHT22;4031;49.758;6.120;2022-08-19T04:46:38;13.50;99.90
7972;DHT22;4031;49.758;6.120;2022-08-19T04:49:05;13.60;99.90
7972;DHT22;4031;49.758;6.120;2022-08-19T04:51:34;13.60;99.90
7972;DHT22;4031;49.758;6.120;2022-08-19T04:54:03;13.60;99.90
7972;DHT22;4031;49.758;6.120;2022-08-19T04:56:29;13.70;99.90
7972;DHT22;4031;49.758;6.120;2022-08-19T04:58:56;13.70;99.90
7972;DHT22;4031;49.758;6.120;2022-08-19T05:01:29;13.80;99.90
7972;DHT22;4031;49.758;6.120;2022-08-19T05:03:58;13.80;99.90
7972;DHT22;4031;49.758;6.120;2022-08-19T05:06:26;13.90;99.90
7972;DHT22;4031;49.758;6.120;2022-08-19T05:08:51;13.90;99.90
7972;DHT22;4031;49.758;6.120;2022-08-19T05:11:23;14.00;99.90
7972;DHT22;4031;49.758;6.120;2022-08-19T05:13:51;14.10;99.90
7972;DHT22;4031;49.758;6.120;2022-08-19T05:16:19;14.10;99.90
7972;DHT22;4031;49.758;6.120;2022-08-19T05:18:46;14.20;99.90
7972;DHT22;4031;49.758;6.120;2022-08-19T05:21:32;14.20;99.90
7972;DHT22;4031;49.758;6.120;2022-08-19T05:24:17;14.30;99.90
7972;DHT22;4031;49.758;6.120;2022-08-19T05:26:46;14.40;99.90
7972;DHT22;4031;49.758;6.120;2022-08-19T05:29:15;14.40;99.90
7972;DHT22;4031;49.758;6.120;2022-08-19T05:31:43;14.50;99.90
7972;DHT22;4031;49.758;6.120;2022-08-19T05:34:09;14.60;99.90
7972;DHT22;4031;49.758;6.120;2022-08-19T05:36:41;14.60;99.90
7972;DHT22;4031;49.758;6.120;2022-08-19T05:39:11;14.70;99.90
7972;DHT22;4031;49.758;6.120;2022-08-19T05:41:47;14.90;99.90
7972;DHT22;4031;49.758;6.120;2022-08-19T05:44:15;15.00;99.90
7972;DHT22;4031;49.758;6.120;2022-08-19T05:46:43;15.20;99.90
7972;DHT22;4031;49.758;6.120;2022-08-19T05:49:12;15.30;99.90
7972;DHT22;4031;49.758;6.120;2022-08-19T05:51:39;15.50;99.90
7972;DHT22;4031;49.758;6.120;2022-08-19T05:54:06;15.60;99.90
7972;DHT22;4031;49.758;6.120;2022-08-19T05:56:33;15.70;99.90
7972;DHT22;4031;49.758;6.120;2022-08-19T05:59:02;15.80;99.90
7972;DHT22;4031;49.758;6.120;2022-08-19T06:01:28;15.90;99.90
7972;DHT22;4031;49.758;6.120;2022-08-19T06:03:53;16.10;99.90
7972;DHT22;4031;49.758;6.120;2022-08-19T06:06:19;16.30;99.90
7972;DHT22;4031;49.758;6.120;2022-08-19T06:08:45;16.40;99.90
7972;DHT22;4031;49.758;6.120;2022-08-19T06:11:17;16.60;99.90
7972;DHT22;4031;49.758;6.120;2022-08-19T06:13:52;16.80;99.90
7972;DHT22;4031;49.758;6.120;2022-08-19T06:16:20;17.00;99.90
7972;DHT22;4031;49.758;6.120;2022-08-19T06:18:48;17.20;99.90
7972;DHT22;4031;49.758;6.120;2022-08-19T06:21:27;17.40;99.90
7972;DHT22;4031;49.758;6.120;2022-08-19T06:23:55;17.70;99.90
7972;DHT22;4031;49.758;6.120;2022-08-19T06:26:22;18.00;99.90
7972;DHT22;4031;49.758;6.120;2022-08-19T06:28:49;18.20;99.90
7972;DHT22;4031;49.758;6.120;2022-08-19T06:31:17;18.60;99.90
7972;DHT22;4031;49.758;6.120;2022-08-19T06:33:46;19.10;99.90
7972;DHT22;4031;49.758;6.120;2022-08-19T06:36:24;19.70;99.90
7972;DHT22;4031;49.758;6.120;2022-08-19T06:38:57;20.40;99.90
7972;DHT22;4031;49.758;6.120;2022-08-19T06:41:25;21.20;99.90
7972;DHT22;4031;49.758;6.120;2022-08-19T06:43:52;21.90;99.90
7972;DHT22;4031;49.758;6.120;2022-08-19T06:46:18;22.70;99.90
7972;DHT22;4031;49.758;6.120;2022-08-19T06:48:45;23.40;99.90
7972;DHT22;4031;49.758;6.120;2022-08-19T06:51:14;24.30;99.90
7972;DHT22;4031;49.758;6.120;2022-08-19T06:53:44;25.00;99.90
7972;DHT22;4031;49.758;6.120;2022-08-19T06:56:16;25.30;99.90
7972;DHT22;4031;49.758;6.120;2022-08-19T06:58:43;25.70;99.90
7972;DHT22;4031;49.758;6.120;2022-08-19T07:01:10;26.50;99.90
7972;DHT22;4031;49.758;6.120;2022-08-19T07:03:36;26.70;99.90
7972;DHT22;4031;49.758;6.120;2022-08-19T07:06:05;27.00;99.90
7972;DHT22;4031;49.758;6.120;2022-08-19T07:08:33;27.20;99.90
7972;DHT22;4031;49.758;6.120;2022-08-19T07:11:02;27.70;99.90
7972;DHT22;4031;49.758;6.120;2022-08-19T07:13:32;27.90;99.90
7972;DHT22;4031;49.758;6.120;2022-08-19T07:16:06;28.50;99.90
7972;DHT22;4031;49.758;6.120;2022-08-19T07:18:33;29.00;99.90
7972;DHT22;4031;49.758;6.120;2022-08-19T07:21:13;29.40;99.90
7972;DHT22;4031;49.758;6.120;2022-08-19T07:23:44;30.00;99.90
7972;DHT22;4031;49.758;6.120;2022-08-19T07:28:38;31.10;99.90
7972;DHT22;4031;49.758;6.120;2022-08-19T07:31:09;31.30;99.90
7972;DHT22;4031;49.758;6.120;2022-08-19T07:33:38;31.50;99.90
7972;DHT22;4031;49.758;6.120;2022-08-19T07:36:06;31.30;99.90
7972;DHT22;4031;49.758;6.120;2022-08-19T07:38:33;31.00;99.80
7972;DHT22;4031;49.758;6.120;2022-08-19T07:41:00;30.60;99.90
7972;DHT22;4031;49.758;6.120;2022-08-19T07:43:27;30.40;99.40
7972;DHT22;4031;49.758;6.120;2022-08-19T07:45:54;30.30;97.50
7972;DHT22;4031;49.758;6.120;2022-08-19T07:48:25;30.30;98.20
7972;DHT22;4031;49.758;6.120;2022-08-19T07:50:57;30.50;97.80
7972;DHT22;4031;49.758;6.120;2022-08-19T07:53:27;31.30;97.30
7972;DHT22;4031;49.758;6.120;2022-08-19T07:55:54;31.80;95.10
7972;DHT22;4031;49.758;6.120;2022-08-19T07:58:21;32.20;94.20
7972;DHT22;4031;49.758;6.120;2022-08-19T08:00:49;32.60;92.50
7972;DHT22;4031;49.758;6.120;2022-08-19T08:03:18;32.90;92.80
7972;DHT22;4031;49.758;6.120;2022-08-19T08:05:45;33.40;91.30
7972;DHT22;4031;49.758;6.120;2022-08-19T08:08:31;33.40;89.60
7972;DHT22;4031;49.758;6.120;2022-08-19T08:10:56;33.40;88.40
7972;DHT22;4031;49.758;6.120;2022-08-19T08:13:23;33.60;84.80
7972;DHT22;4031;49.758;6.120;2022-08-19T08:15:49;33.50;83.70
7972;DHT22;4031;49.758;6.120;2022-08-19T08:18:15;33.50;84.80
7972;DHT22;4031;49.758;6.120;2022-08-19T08:20:41;33.80;81.20
7972;DHT22;4031;49.758;6.120;2022-08-19T08:23:06;33.90;78.60
7972;DHT22;4031;49.758;6.120;2022-08-19T08:25:49;34.00;79.00
7972;DHT22;4031;49.758;6.120;2022-08-19T08:28:15;34.30;77.20
7972;DHT22;4031;49.758;6.120;2022-08-19T08:30:42;34.30;75.90
7972;DHT22;4031;49.758;6.120;2022-08-19T08:33:09;34.30;76.00
7972;DHT22;4031;49.758;6.120;2022-08-19T08:35:36;34.40;74.70
7972;DHT22;4031;49.758;6.120;2022-08-19T08:38:03;35.00;73.20
7972;DHT22;4031;49.758;6.120;2022-08-19T08:43:31;35.80;71.00
7972;DHT22;4031;49.758;6.120;2022-08-19T08:48:46;35.30;69.80
7972;DHT22;4031;49.758;6.120;2022-08-19T08:51:22;35.50;66.60
7972;DHT22;4031;49.758;6.120;2022-08-19T08:53:51;36.00;66.50
7972;DHT22;4031;49.758;6.120;2022-08-19T08:56:18;36.20;65.10
7972;DHT22;4031;49.758;6.120;2022-08-19T08:59:04;36.30;64.00
7972;DHT22;4031;49.758;6.120;2022-08-19T09:01:34;36.70;63.00
7972;DHT22;4031;49.758;6.120;2022-08-19T09:04:04;36.90;62.20
7972;DHT22;4031;49.758;6.120;2022-08-19T09:06:38;37.00;61.80
7972;DHT22;4031;49.758;6.120;2022-08-19T09:09:34;36.30;60.20
7972;DHT22;4031;49.758;6.120;2022-08-19T09:12:24;34.50;62.50
7972;DHT22;4031;49.758;6.120;2022-08-19T09:15:08;34.10;63.40
7972;DHT22;4031;49.758;6.120;2022-08-19T09:17:36;34.30;63.50
7972;DHT22;4031;49.758;6.120;2022-08-19T09:22:40;34.50;63.30
7972;DHT22;4031;49.758;6.120;2022-08-19T09:25:10;33.40;65.70
7972;DHT22;4031;49.758;6.120;2022-08-19T09:27:39;33.40;63.90
7972;DHT22;4031;49.758;6.120;2022-08-19T09:30:08;33.40;63.10
7972;DHT22;4031;49.758;6.120;2022-08-19T09:32:36;33.10;64.90
7972;DHT22;4031;49.758;6.120;2022-08-19T09:35:04;33.10;63.80
7972;DHT22;4031;49.758;6.120;2022-08-19T09:37:31;32.70;66.40
7972;DHT22;4031;49.758;6.120;2022-08-19T09:39:57;33.00;65.60
7972;DHT22;4031;49.758;6.120;2022-08-19T09:42:23;34.20;63.80
7972;DHT22;4031;49.758;6.120;2022-08-19T09:44:48;34.50;62.20
7972;DHT22;4031;49.758;6.120;2022-08-19T09:47:14;33.50;63.90
7972;DHT22;4031;49.758;6.120;2022-08-19T09:49:40;33.20;64.20
7972;DHT22;4031;49.758;6.120;2022-08-19T09:52:11;32.10;64.50
7972;DHT22;4031;49.758;6.120;2022-08-19T09:54:40;30.90;68.20
7972;DHT22;4031;49.758;6.120;2022-08-19T09:57:05;30.40;69.90
7972;DHT22;4031;49.758;6.120;2022-08-19T09:59:31;30.60;70.20
7972;DHT22;4031;49.758;6.120;2022-08-19T10:01:57;31.10;69.60
7972;DHT22;4031;49.758;6.120;2022-08-19T10:04:23;32.20;67.40
7972;DHT22;4031;49.758;6.120;2022-08-19T10:07:09;32.10;66.50
7972;DHT22;4031;49.758;6.120;2022-08-19T10:09:35;31.70;68.30
7972;DHT22;4031;49.758;6.120;2022-08-19T10:12:03;31.60;67.60
7972;DHT22;4031;49.758;6.120;2022-08-19T10:14:30;31.10;69.00
7972;DHT22;4031;49.758;6.120;2022-08-19T10:16:56;31.70;68.70
7972;DHT22;4031;49.758;6.120;2022-08-19T10:19:22;31.40;68.10
7972;DHT22;4031;49.758;6.120;2022-08-19T10:21:48;31.80;68.20
7972;DHT22;4031;49.758;6.120;2022-08-19T10:24:14;31.90;65.90
7972;DHT22;4031;49.758;6.120;2022-08-19T10:26:40;31.60;67.20
7972;DHT22;4031;49.758;6.120;2022-08-19T10:29:13;31.80;66.20
7972;DHT22;4031;49.758;6.120;2022-08-19T10:31:41;31.90;66.00
7972;DHT22;4031;49.758;6.120;2022-08-19T10:34:07;32.20;65.90
7972;DHT22;4031;49.758;6.120;2022-08-19T10:36:36;32.50;65.20
7972;DHT22;4031;49.758;6.120;2022-08-19T10:39:08;33.10;65.00
7972;DHT22;4031;49.758;6.120;2022-08-19T10:41:37;34.00;63.40
7972;DHT22;4031;49.758;6.120;2022-08-19T10:44:08;34.20;62.20
7972;DHT22;4031;49.758;6.120;2022-08-19T10:46:38;34.70;60.20
7972;DHT22;4031;49.758;6.120;2022-08-19T10:49:07;35.30;59.70
7972;DHT22;4031;49.758;6.120;2022-08-19T10:51:34;36.00;59.30
7972;DHT22;4031;49.758;6.120;2022-08-19T10:54:19;36.50;57.90
7972;DHT22;4031;49.758;6.120;2022-08-19T10:56:45;34.80;59.20
7972;DHT22;4031;49.758;6.120;2022-08-19T10:59:28;32.90;60.80
7972;DHT22;4031;49.758;6.120;2022-08-19T11:01:59;31.20;63.30
7972;DHT22;4031;49.758;6.120;2022-08-19T11:04:26;31.30;64.60
7972;DHT22;4031;49.758;6.120;2022-08-19T11:06:52;32.00;62.50
7972;DHT22;4031;49.758;6.120;2022-08-19T11:09:20;31.80;61.40
7972;DHT22;4031;49.758;6.120;2022-08-19T11:11:52;32.00;61.80
7972;DHT22;4031;49.758;6.120;2022-08-19T11:14:19;32.60;60.10
7972;DHT22;4031;49.758;6.120;2022-08-19T11:16:47;32.90;59.10
7972;DHT22;4031;49.758;6.120;2022-08-19T11:19:14;33.20;59.70
7972;DHT22;4031;49.758;6.120;2022-08-19T11:21:44;33.40;61.30
7972;DHT22;4031;49.758;6.120;2022-08-19T11:24:14;33.40;61.80
7972;DHT22;4031;49.758;6.120;2022-08-19T11:26:43;33.30;59.00
7972;DHT22;4031;49.758;6.120;2022-08-19T11:29:11;32.90;57.40
7972;DHT22;4031;49.758;6.120;2022-08-19T11:31:41;32.90;57.70
7972;DHT22;4031;49.758;6.120;2022-08-19T11:34:10;33.40;57.80
7972;DHT22;4031;49.758;6.120;2022-08-19T11:36:40;33.40;56.60
7972;DHT22;4031;49.758;6.120;2022-08-19T11:39:09;33.40;56.70
7972;DHT22;4031;49.758;6.120;2022-08-19T11:41:35;33.60;55.80
7972;DHT22;4031;49.758;6.120;2022-08-19T11:44:01;33.60;56.40
7972;DHT22;4031;49.758;6.120;2022-08-19T11:46:28;33.40;56.30
7972;DHT22;4031;49.758;6.120;2022-08-19T11:48:55;33.10;56.50
7972;DHT22;4031;49.758;6.120;2022-08-19T11:51:23;32.70;56.50
7972;DHT22;4031;49.758;6.120;2022-08-19T11:53:51;32.60;56.90
7972;DHT22;4031;49.758;6.120;2022-08-19T11:56:19;32.50;54.80
7972;DHT22;4031;49.758;6.120;2022-08-19T11:58:45;32.30;54.30
7972;DHT22;4031;49.758;6.120;2022-08-19T12:01:13;32.20;55.00
7972;DHT22;4031;49.758;6.120;2022-08-19T12:03:41;32.40;55.70
7972;DHT22;4031;49.758;6.120;2022-08-19T12:06:12;32.30;54.30
7972;DHT22;4031;49.758;6.120;2022-08-19T12:08:41;32.50;53.90
7972;DHT22;4031;49.758;6.120;2022-08-19T12:11:09;32.40;54.60
7972;DHT22;4031;49.758;6.120;2022-08-19T12:13:36;31.60;54.00
7972;DHT22;4031;49.758;6.120;2022-08-19T12:16:10;31.80;55.00
7972;DHT22;4031;49.758;6.120;2022-08-19T12:18:39;32.00;54.70
7972;DHT22;4031;49.758;6.120;2022-08-19T12:21:07;32.40;56.40
7972;DHT22;4031;49.758;6.120;2022-08-19T12:23:35;32.30;54.20
7972;DHT22;4031;49.758;6.120;2022-08-19T12:26:03;31.40;56.80
7972;DHT22;4031;49.758;6.120;2022-08-19T12:28:30;30.50;57.90
7972;DHT22;4031;49.758;6.120;2022-08-19T12:30:56;29.60;60.00
7972;DHT22;4031;49.758;6.120;2022-08-19T12:33:22;29.20;60.90
7972;DHT22;4031;49.758;6.120;2022-08-19T12:35:51;29.60;59.80
7972;DHT22;4031;49.758;6.120;2022-08-19T12:38:18;30.30;59.40
7972;DHT22;4031;49.758;6.120;2022-08-19T12:40:48;31.10;58.90
7972;DHT22;4031;49.758;6.120;2022-08-19T12:43:15;31.70;58.10
7972;DHT22;4031;49.758;6.120;2022-08-19T12:45:41;32.00;57.80
7972;DHT22;4031;49.758;6.120;2022-08-19T12:48:08;32.00;57.10
7972;DHT22;4031;49.758;6.120;2022-08-19T12:50:34;32.20;57.80
7972;DHT22;4031;49.758;6.120;2022-08-19T12:53:00;32.00;58.00
7972;DHT22;4031;49.758;6.120;2022-08-19T12:55:26;31.50;58.70
7972;DHT22;4031;49.758;6.120;2022-08-19T12:57:53;31.50;59.10
7972;DHT22;4031;49.758;6.120;2022-08-19T13:00:21;31.80;59.10
7972;DHT22;4031;49.758;6.120;2022-08-19T13:02:51;32.00;59.30
7972;DHT22;4031;49.758;6.120;2022-08-19T13:05:23;32.60;58.70
7972;DHT22;4031;49.758;6.120;2022-08-19T13:07:52;32.60;58.40
7972;DHT22;4031;49.758;6.120;2022-08-19T13:10:22;32.00;58.90
7972;DHT22;4031;49.758;6.120;2022-08-19T13:12:51;31.40;59.10
7972;DHT22;4031;49.758;6.120;2022-08-19T13:15:19;31.50;60.10
7972;DHT22;4031;49.758;6.120;2022-08-19T13:17:47;31.40;59.40
7972;DHT22;4031;49.758;6.120;2022-08-19T13:20:15;31.40;59.30
7972;DHT22;4031;49.758;6.120;2022-08-19T13:22:42;30.30;60.20
7972;DHT22;4031;49.758;6.120;2022-08-19T13:25:10;29.30;62.90
7972;DHT22;4031;49.758;6.120;2022-08-19T13:27:38;29.20;62.60
7972;DHT22;4031;49.758;6.120;2022-08-19T13:30:07;28.90;64.20
7972;DHT22;4031;49.758;6.120;2022-08-19T13:33:04;28.70;64.70
7972;DHT22;4031;49.758;6.120;2022-08-19T13:35:37;28.60;66.50
7972;DHT22;4031;49.758;6.120;2022-08-19T13:38:04;29.70;65.40
7972;DHT22;4031;49.758;6.120;2022-08-19T13:40:31;31.10;62.90
7972;DHT22;4031;49.758;6.120;2022-08-19T13:42:59;32.20;60.10
7972;DHT22;4031;49.758;6.120;2022-08-19T13:45:27;33.20;58.60
7972;DHT22;4031;49.758;6.120;2022-08-19T13:47:55;34.30;58.10
7972;DHT22;4031;49.758;6.120;2022-08-19T13:50:25;34.20;57.50
7972;DHT22;4031;49.758;6.120;2022-08-19T13:52:53;34.60;57.20
7972;DHT22;4031;49.758;6.120;2022-08-19T13:55:20;33.70;56.40
7972;DHT22;4031;49.758;6.120;2022-08-19T13:57:51;32.30;57.80
7972;DHT22;4031;49.758;6.120;2022-08-19T14:00:22;30.90;59.80
7972;DHT22;4031;49.758;6.120;2022-08-19T14:02:51;30.20;61.80
7972;DHT22;4031;49.758;6.120;2022-08-19T14:05:19;29.40;63.50
7972;DHT22;4031;49.758;6.120;2022-08-19T14:07:45;29.10;64.80
7972;DHT22;4031;49.758;6.120;2022-08-19T14:10:13;28.80;65.80
7972;DHT22;4031;49.758;6.120;2022-08-19T14:12:39;28.80;66.20
7972;DHT22;4031;49.758;6.120;2022-08-19T14:15:07;28.60;66.00
7972;DHT22;4031;49.758;6.120;2022-08-19T14:17:38;28.50;67.10
7972;DHT22;4031;49.758;6.120;2022-08-19T14:20:07;28.40;68.10
7972;DHT22;4031;49.758;6.120;2022-08-19T14:22:35;28.60;68.80
7972;DHT22;4031;49.758;6.120;2022-08-19T14:25:03;28.50;68.60
7972;DHT22;4031;49.758;6.120;2022-08-19T14:27:33;28.50;68.70
7972;DHT22;4031;49.758;6.120;2022-08-19T14:30:04;28.40;68.80
7972;DHT22;4031;49.758;6.120;2022-08-19T14:32:32;28.10;69.60
7972;DHT22;4031;49.758;6.120;2022-08-19T14:34:59;27.90;70.00
7972;DHT22;4031;49.758;6.120;2022-08-19T14:37:25;28.30;70.70
7972;DHT22;4031;49.758;6.120;2022-08-19T14:39:51;28.80;69.80
7972;DHT22;4031;49.758;6.120;2022-08-19T14:42:17;28.80;69.30
7972;DHT22;4031;49.758;6.120;2022-08-19T14:44:43;28.50;69.70
7972;DHT22;4031;49.758;6.120;2022-08-19T14:47:09;28.20;70.80
7972;DHT22;4031;49.758;6.120;2022-08-19T14:49:35;28.10;71.80
7972;DHT22;4031;49.758;6.120;2022-08-19T14:52:02;28.10;72.50
7972;DHT22;4031;49.758;6.120;2022-08-19T14:54:28;28.00;71.90
7972;DHT22;4031;49.758;6.120;2022-08-19T14:56:54;27.90;73.40
7972;DHT22;4031;49.758;6.120;2022-08-19T14:59:20;27.80;73.90
7972;DHT22;4031;49.758;6.120;2022-08-19T15:01:46;27.50;74.20
7972;DHT22;4031;49.758;6.120;2022-08-19T15:04:12;27.20;75.70
7972;DHT22;4031;49.758;6.120;2022-08-19T15:06:38;27.10;75.90
7972;DHT22;4031;49.758;6.120;2022-08-19T15:09:04;26.90;75.80
7972;DHT22;4031;49.758;6.120;2022-08-19T15:11:31;26.60;79.10
7972;DHT22;4031;49.758;6.120;2022-08-19T15:13:58;26.60;82.00
7972;DHT22;4031;49.758;6.120;2022-08-19T15:16:25;26.40;83.30
7972;DHT22;4031;49.758;6.120;2022-08-19T15:18:54;26.40;81.50
7972;DHT22;4031;49.758;6.120;2022-08-19T15:21:23;26.50;81.30
7972;DHT22;4031;49.758;6.120;2022-08-19T15:23:50;26.90;80.50
7972;DHT22;4031;49.758;6.120;2022-08-19T15:26:18;28.00;78.80
7972;DHT22;4031;49.758;6.120;2022-08-19T15:28:45;29.10;75.20
7972;DHT22;4031;49.758;6.120;2022-08-19T15:31:11;29.90;73.20
7972;DHT22;4031;49.758;6.120;2022-08-19T15:33:39;30.40;71.20
7972;DHT22;4031;49.758;6.120;2022-08-19T15:36:08;30.70;70.90
7972;DHT22;4031;49.758;6.120;2022-08-19T15:38:34;30.60;69.50
7972;DHT22;4031;49.758;6.120;2022-08-19T15:41:02;30.00;70.00
7972;DHT22;4031;49.758;6.120;2022-08-19T15:43:50;29.10;72.20
7972;DHT22;4031;49.758;6.120;2022-08-19T15:46:19;28.20;75.70
7972;DHT22;4031;49.758;6.120;2022-08-19T15:48:48;27.60;77.00
7972;DHT22;4031;49.758;6.120;2022-08-19T15:51:15;27.30;78.40
7972;DHT22;4031;49.758;6.120;2022-08-19T15:53:42;27.30;79.00
7972;DHT22;4031;49.758;6.120;2022-08-19T15:56:09;27.80;77.60
7972;DHT22;4031;49.758;6.120;2022-08-19T15:58:36;28.00;78.00
7972;DHT22;4031;49.758;6.120;2022-08-19T16:01:20;27.90;77.60
7972;DHT22;4031;49.758;6.120;2022-08-19T16:04:04;27.60;78.90
7972;DHT22;4031;49.758;6.120;2022-08-19T16:06:54;27.20;79.90
7972;DHT22;4031;49.758;6.120;2022-08-19T16:09:23;26.90;81.30
7972;DHT22;4031;49.758;6.120;2022-08-19T16:11:56;26.60;81.80
7972;DHT22;4031;49.758;6.120;2022-08-19T16:14:24;26.30;83.40
7972;DHT22;4031;49.758;6.120;2022-08-19T16:16:50;26.10;84.60
7972;DHT22;4031;49.758;6.120;2022-08-19T16:19:17;26.00;85.10
7972;DHT22;4031;49.758;6.120;2022-08-19T16:21:50;25.90;85.40
7972;DHT22;4031;49.758;6.120;2022-08-19T16:24:19;25.80;86.20